sensor_id;sensor_type;location;lat;lon;timestamp;pressure;altitude;pressure_sealevel;temperature;humidity
68986;BME280;56035;37.534;-122.308;2022-08-18T00:00:15;100895.25;;;25.68;39.70
68986;BME280;56035;37.534;-122.308;2022-08-18T00:02:41;100887.25;;;25.70;38.71
68986;BME280;56035;37.534;-122.308;2022-08-18T00:05:08;100888.94;;;25.71;37.48
68986;BME280;56035;37.534;-122.308;2022-08-18T00:07:34;100891.41;;;25.73;39.21
68986;BME280;56035;37.534;-122.308;2022-08-18T00:10:00;100891.25;;;25.69;38.42
68986;BME280;56035;37.534;-122.308;2022-08-18T00:12:28;100891.94;;;25.66;38.60
68986;BME280;56035;37.534;-122.308;2022-08-18T00:14:54;100900.00;;;25.46;40.77
68986;BME280;56035;37.534;-122.308;2022-08-18T00:17:21;100896.94;;;25.31;41.55
68986;BME280;56035;37.534;-122.308;2022-08-18T00:19:47;100888.38;;;25.18;42.22
68986;BME280;56035;37.534;-122.308;2022-08-18T00:22:14;100898.16;;;25.04;42.55
68986;BME280;56035;37.534;-122.308;2022-08-18T00:24:40;100881.63;;;24.93;43.43
68986;BME280;56035;37.534;-122.308;2022-08-18T00:27:06;100887.47;;;24.80;43.45
68986;BME280;56035;37.534;-122.308;2022-08-18T00:29:34;100881.84;;;24.62;43.73
68986;BME280;56035;37.534;-122.308;2022-08-18T00:32:10;100885.19;;;24.56;44.98
68986;BME280;56035;37.534;-122.308;2022-08-18T00:34:35;100883.53;;;24.46;44.86
68986;BME280;56035;37.534;-122.308;2022-08-18T00:37:01;100895.97;;;24.36;45.38
68986;BME280;56035;37.534;-122.308;2022-08-18T00:39:27;100902.41;;;24.28;45.59
68986;BME280;56035;37.534;-122.308;2022-08-18T00:41:55;100905.41;;;24.14;45.67
68986;BME280;56035;37.534;-122.308;2022-08-18T00:44:20;100908.84;;;24.02;45.78
68986;BME280;56035;37.534;-122.308;2022-08-18T00:46:46;100906.88;;;23.94;45.99
68986;BME280;56035;37.534;-122.308;2022-08-18T00:49:12;100904.19;;;23.89;45.50
68986;BME280;56035;37.534;-122.308;2022-08-18T00:51:48;100907.00;;;23.80;46.52
68986;BME280;56035;37.534;-122.308;2022-08-18T00:54:20;100907.09;;;23.67;46.72
68986;BME280;56035;37.534;-122.308;2022-08-18T00:56:48;100903.44;;;23.57;46.81
68986;BME280;56035;37.534;-122.308;2022-08-18T00:59:17;100908.06;;;23.53;46.96
68986;BME280;56035;37.534;-122.308;2022-08-18T01:01:45;100908.22;;;23.48;47.02
68986;BME280;56035;37.534;-122.308;2022-08-18T01:07:01;100906.72;;;23.42;46.92
68986;BME280;56035;37.534;-122.308;2022-08-18T01:09:29;100908.19;;;23.40;47.46
68986;BME280;56035;37.534;-122.308;2022-08-18T01:11:55;100905.19;;;23.36;47.15
68986;BME280;56035;37.534;-122.308;2022-08-18T01:14:21;100905.31;;;23.31;46.86
68986;BME280;56035;37.534;-122.308;2022-08-18T01:16:47;100896.72;;;23.27;44.74
68986;BME280;56035;37.534;-122.308;2022-08-18T01:19:32;100901.69;;;23.30;44.78
68986;BME280;56035;37.534;-122.308;2022-08-18T01:24:48;100901.66;;;23.22;46.22
68986;BME280;56035;37.534;-122.308;2022-08-18T01:27:34;100891.06;;;23.19;46.48
68986;BME280;56035;37.534;-122.308;2022-08-18T01:30:05;100894.34;;;23.12;46.24
68986;BME280;56035;37.534;-122.308;2022-08-18T01:32:35;100896.47;;;23.06;46.33
68986;BME280;56035;37.534;-122.308;2022-08-18T01:35:01;100902.22;;;23.01;46.27
68986;BME280;56035;37.534;-122.308;2022-08-18T01:37:27;100897.25;;;22.98;46.67
68986;BME280;56035;37.534;-122.308;2022-08-18T01:39:53;100895.06;;;22.95;47.09
68986;BME280;56035;37.534;-122.308;2022-08-18T01:42:20;100899.66;;;22.91;46.70
68986;BME280;56035;37.534;-122.308;2022-08-18T01:45:06;100901.47;;;22.87;46.71
68986;BME280;56035;37.534;-122.308;2022-08-18T01:47:32;100908.88;;;22.83;52.38
68986;BME280;56035;37.534;-122.308;2022-08-18T01:49:59;100906.75;;;22.66;53.04
68986;BME280;56035;37.534;-122.308;2022-08-18T01:52:25;100912.44;;;22.52;53.67
68986;BME280;56035;37.534;-122.308;2022-08-18T01:54:54;100913.66;;;22.37;54.25
68986;BME280;56035;37.534;-122.308;2022-08-18T01:57:22;100915.88;;;22.27;54.20
68986;BME280;56035;37.534;-122.308;2022-08-18T01:59:48;100912.56;;;22.25;54.13
68986;BME280;56035;37.534;-122.308;2022-08-18T02:02:16;100917.03;;;22.26;54.09
68986;BME280;56035;37.534;-122.308;2022-08-18T02:04:43;100920.59;;;22.17;53.80
68986;BME280;56035;37.534;-122.308;2022-08-18T02:07:10;100914.47;;;22.02;51.18
68986;BME280;56035;37.534;-122.308;2022-08-18T02:09:37;100916.75;;;22.00;51.59
68986;BME280;56035;37.534;-122.308;2022-08-18T02:12:04;100918.44;;;21.87;51.98
68986;BME280;56035;37.534;-122.308;2022-08-18T02:14:30;100915.38;;;21.74;53.04
68986;BME280;56035;37.534;-122.308;2022-08-18T02:16:56;100930.13;;;21.66;52.82
68986;BME280;56035;37.534;-122.308;2022-08-18T02:19:22;100925.53;;;21.57;53.24
68986;BME280;56035;37.534;-122.308;2022-08-18T02:21:49;100926.91;;;21.45;53.37
68986;BME280;56035;37.534;-122.308;2022-08-18T02:24:16;100929.06;;;21.35;53.60
68986;BME280;56035;37.534;-122.308;2022-08-18T02:26:42;100931.53;;;21.22;54.15
68986;BME280;56035;37.534;-122.308;2022-08-18T02:29:08;100928.41;;;21.10;54.52
68986;BME280;56035;37.534;-122.308;2022-08-18T02:31:34;100936.69;;;21.01;54.81
68986;BME280;56035;37.534;-122.308;2022-08-18T02:34:00;100937.25;;;20.85;55.15
68986;BME280;56035;37.534;-122.308;2022-08-18T02:36:26;100940.84;;;20.71;55.34
68986;BME280;56035;37.534;-122.308;2022-08-18T02:38:52;100934.91;;;20.59;56.28
68986;BME280;56035;37.534;-122.308;2022-08-18T02:41:18;100950.56;;;20.41;56.61
68986;BME280;56035;37.534;-122.308;2022-08-18T02:43:44;100948.91;;;20.21;57.53
68986;BME280;56035;37.534;-122.308;2022-08-18T02:46:12;100953.66;;;20.02;58.58
68986;BME280;56035;37.534;-122.308;2022-08-18T02:48:38;100958.19;;;19.74;59.42
68986;BME280;56035;37.534;-122.308;2022-08-18T02:51:05;100956.00;;;19.47;60.18
68986;BME280;56035;37.534;-122.308;2022-08-18T02:53:33;100968.84;;;19.18;61.29
68986;BME280;56035;37.534;-122.308;2022-08-18T02:56:06;100963.47;;;18.98;62.07
68986;BME280;56035;37.534;-122.308;2022-08-18T02:59:06;100957.50;;;18.81;62.55
68986;BME280;56035;37.534;-122.308;2022-08-18T03:01:33;100963.03;;;18.46;63.86
68986;BME280;56035;37.534;-122.308;2022-08-18T03:04:01;100958.59;;;18.40;63.73
68986;BME280;56035;37.534;-122.308;2022-08-18T03:06:27;100966.53;;;18.23;65.00
68986;BME280;56035;37.534;-122.308;2022-08-18T03:08:54;100961.94;;;18.03;65.24
68986;BME280;56035;37.534;-122.308;2022-08-18T03:11:27;100959.97;;;18.04;65.03
68986;BME280;56035;37.534;-122.308;2022-08-18T03:13:53;100971.44;;;17.97;65.37
68986;BME280;56035;37.534;-122.308;2022-08-18T03:16:20;100966.19;;;17.85;65.45
68986;BME280;56035;37.534;-122.308;2022-08-18T03:18:49;100966.25;;;17.70;66.44
68986;BME280;56035;37.534;-122.308;2022-08-18T03:21:16;100965.72;;;17.63;66.47
68986;BME280;56035;37.534;-122.308;2022-08-18T03:23:46;100964.63;;;17.53;66.59
68986;BME280;56035;37.534;-122.308;2022-08-18T03:26:12;100971.88;;;17.44;67.41
68986;BME280;56035;37.534;-122.308;2022-08-18T03:28:39;100976.09;;;17.37;67.71
68986;BME280;56035;37.534;-122.308;2022-08-18T03:31:06;100976.41;;;17.30;67.75
68986;BME280;56035;37.534;-122.308;2022-08-18T03:33:32;100984.75;;;17.20;68.40
68986;BME280;56035;37.534;-122.308;2022-08-18T03:36:08;100979.47;;;17.13;69.05
68986;BME280;56035;37.534;-122.308;2022-08-18T03:38:34;100977.53;;;17.08;68.94
68986;BME280;56035;37.534;-122.308;2022-08-18T03:41:00;100976.69;;;17.03;68.76
68986;BME280;56035;37.534;-122.308;2022-08-18T03:43:28;100984.78;;;16.99;68.97
68986;BME280;56035;37.534;-122.308;2022-08-18T03:45:59;100985.34;;;16.96;69.11
68986;BME280;56035;37.534;-122.308;2022-08-18T03:48:25;100989.78;;;16.92;69.62
68986;BME280;56035;37.534;-122.308;2022-08-18T03:50:51;100995.63;;;16.85;70.01
68986;BME280;56035;37.534;-122.308;2022-08-18T03:53:16;101003.97;;;16.80;70.23
68986;BME280;56035;37.534;-122.308;2022-08-18T03:55:43;101003.38;;;16.73;70.37
68986;BME280;56035;37.534;-122.308;2022-08-18T03:58:09;101006.47;;;16.72;70.74
68986;BME280;56035;37.534;-122.308;2022-08-18T04:00:39;101013.97;;;16.66;70.73
68986;BME280;56035;37.534;-122.308;2022-08-18T04:03:05;101009.50;;;16.60;71.14
68986;BME280;56035;37.534;-122.308;2022-08-18T04:05:37;101015.63;;;16.57;71.58
68986;BME280;56035;37.534;-122.308;2022-08-18T04:08:03;101012.53;;;16.53;71.80
68986;BME280;56035;37.534;-122.308;2022-08-18T04:10:31;101011.16;;;16.51;72.53
68986;BME280;56035;37.534;-122.308;2022-08-18T04:13:00;101017.56;;;16.46;72.60
68986;BME280;56035;37.534;-122.308;2022-08-18T04:15:29;101028.09;;;16.44;72.75
68986;BME280;56035;37.534;-122.308;2022-08-18T04:17:59;101018.06;;;16.38;73.61
68986;BME280;56035;37.534;-122.308;2022-08-18T04:20:28;101022.22;;;16.30;73.90
68986;BME280;56035;37.534;-122.308;2022-08-18T04:22:54;101024.16;;;16.25;73.70
68986;BME280;56035;37.534;-122.308;2022-08-18T04:25:20;101018.31;;;16.21;73.65
68986;BME280;56035;37.534;-122.308;2022-08-18T04:27:46;101023.59;;;16.12;74.95
68986;BME280;56035;37.534;-122.308;2022-08-18T04:30:11;101024.38;;;16.08;75.53
68986;BME280;56035;37.534;-122.308;2022-08-18T04:32:37;101017.13;;;16.02;75.36
68986;BME280;56035;37.534;-122.308;2022-08-18T04:35:04;101024.34;;;15.98;75.85
68986;BME280;56035;37.534;-122.308;2022-08-18T04:37:29;101027.13;;;15.93;76.73
68986;BME280;56035;37.534;-122.308;2022-08-18T04:39:56;101018.47;;;15.89;77.63
68986;BME280;56035;37.534;-122.308;2022-08-18T04:42:24;101016.81;;;15.83;77.59
68986;BME280;56035;37.534;-122.308;2022-08-18T04:44:49;101019.00;;;15.81;77.70
68986;BME280;56035;37.534;-122.308;2022-08-18T04:47:15;101022.31;;;15.78;77.78
68986;BME280;56035;37.534;-122.308;2022-08-18T04:49:41;101020.09;;;15.75;77.59
68986;BME280;56035;37.534;-122.308;2022-08-18T04:52:09;101020.91;;;15.70;77.60
68986;BME280;56035;37.534;-122.308;2022-08-18T04:54:53;101027.22;;;15.65;77.56
68986;BME280;56035;37.534;-122.308;2022-08-18T04:57:19;101024.16;;;15.62;78.30
68986;BME280;56035;37.534;-122.308;2022-08-18T04:59:45;101024.13;;;15.57;78.84
68986;BME280;56035;37.534;-122.308;2022-08-18T05:02:12;101028.53;;;15.53;78.23
68986;BME280;56035;37.534;-122.308;2022-08-18T05:04:39;101033.78;;;15.49;78.23
68986;BME280;56035;37.534;-122.308;2022-08-18T05:07:09;101032.97;;;15.49;78.31
68986;BME280;56035;37.534;-122.308;2022-08-18T05:09:36;101040.41;;;15.43;78.63
68986;BME280;56035;37.534;-122.308;2022-08-18T05:12:03;101037.34;;;15.39;79.29
68986;BME280;56035;37.534;-122.308;2022-08-18T05:14:29;101038.16;;;15.35;79.67
68986;BME280;56035;37.534;-122.308;2022-08-18T05:16:59;101047.25;;;15.30;79.97
68986;BME280;56035;37.534;-122.308;2022-08-18T05:19:25;101041.41;;;15.27;79.55
68986;BME280;56035;37.534;-122.308;2022-08-18T05:21:52;101041.94;;;15.23;79.99
68986;BME280;56035;37.534;-122.308;2022-08-18T05:24:19;101047.19;;;15.20;79.49
68986;BME280;56035;37.534;-122.308;2022-08-18T05:26:48;101049.66;;;15.16;80.49
68986;BME280;56035;37.534;-122.308;2022-08-18T05:29:14;101054.91;;;15.13;80.63
68986;BME280;56035;37.534;-122.308;2022-08-18T05:31:40;101045.47;;;15.09;80.81
68986;BME280;56035;37.534;-122.308;2022-08-18T05:34:07;101047.94;;;15.05;80.64
68986;BME280;56035;37.534;-122.308;2022-08-18T05:41:44;101047.78;;;14.90;81.65
68986;BME280;56035;37.534;-122.308;2022-08-18T05:44:34;101055.81;;;14.86;82.62
68986;BME280;56035;37.534;-122.308;2022-08-18T05:49:35;101051.06;;;14.82;82.26
68986;BME280;56035;37.534;-122.308;2022-08-18T05:52:12;101050.75;;;14.78;81.56
68986;BME280;56035;37.534;-122.308;2022-08-18T05:54:47;101050.16;;;14.76;82.10
68986;BME280;56035;37.534;-122.308;2022-08-18T05:57:37;101057.06;;;14.73;82.01
68986;BME280;56035;37.534;-122.308;2022-08-18T06:00:04;101048.72;;;14.68;82.12
68986;BME280;56035;37.534;-122.308;2022-08-18T06:02:37;101046.47;;;14.65;82.01
68986;BME280;56035;37.534;-122.308;2022-08-18T06:05:06;101043.63;;;14.60;82.14
68986;BME280;56035;37.534;-122.308;2022-08-18T06:10:20;101049.13;;;14.55;82.95
68986;BME280;56035;37.534;-122.308;2022-08-18T06:12:49;101048.56;;;14.53;83.23
68986;BME280;56035;37.534;-122.308;2022-08-18T06:15:21;101050.75;;;14.51;83.58
68986;BME280;56035;37.534;-122.308;2022-08-18T06:20:19;101048.72;;;14.46;83.58
68986;BME280;56035;37.534;-122.308;2022-08-18T06:22:58;101054.78;;;14.43;84.19
68986;BME280;56035;37.534;-122.308;2022-08-18T06:25:39;101047.53;;;14.37;84.11
68986;BME280;56035;37.534;-122.308;2022-08-18T06:28:12;101054.69;;;14.33;84.07
68986;BME280;56035;37.534;-122.308;2022-08-18T06:35:35;101065.91;;;14.21;84.68
68986;BME280;56035;37.534;-122.308;2022-08-18T06:40:59;101050.06;;;14.17;85.03
68986;BME280;56035;37.534;-122.308;2022-08-18T06:43:26;101053.06;;;14.15;85.78
68986;BME280;56035;37.534;-122.308;2022-08-18T06:45:53;101069.66;;;14.10;87.02
68986;BME280;56035;37.534;-122.308;2022-08-18T06:51:23;101056.31;;;14.07;85.91
68986;BME280;56035;37.534;-122.308;2022-08-18T06:53:53;101054.06;;;14.04;85.64
68986;BME280;56035;37.534;-122.308;2022-08-18T06:58:49;101067.59;;;14.00;85.89
68986;BME280;56035;37.534;-122.308;2022-08-18T07:01:20;101068.34;;;13.96;85.90
68986;BME280;56035;37.534;-122.308;2022-08-18T07:03:49;101064.69;;;13.90;85.88
68986;BME280;56035;37.534;-122.308;2022-08-18T07:08:47;101060.19;;;13.84;85.97
68986;BME280;56035;37.534;-122.308;2022-08-18T07:11:21;101068.16;;;13.80;85.89
68986;BME280;56035;37.534;-122.308;2022-08-18T07:13:49;101065.81;;;13.72;86.13
68986;BME280;56035;37.534;-122.308;2022-08-18T07:16:23;101069.69;;;13.71;86.58
68986;BME280;56035;37.534;-122.308;2022-08-18T07:18:49;101071.03;;;13.69;87.10
68986;BME280;56035;37.534;-122.308;2022-08-18T07:21:29;101069.59;;;13.66;87.68
68986;BME280;56035;37.534;-122.308;2022-08-18T07:24:02;101062.31;;;13.60;87.67
68986;BME280;56035;37.534;-122.308;2022-08-18T07:26:30;101062.00;;;13.56;87.15
68986;BME280;56035;37.534;-122.308;2022-08-18T07:28:56;101065.03;;;13.55;86.46
68986;BME280;56035;37.534;-122.308;2022-08-18T07:31:47;101068.81;;;13.49;86.24
68986;BME280;56035;37.534;-122.308;2022-08-18T07:34:16;101061.84;;;13.46;87.47
68986;BME280;56035;37.534;-122.308;2022-08-18T07:37:27;101070.94;;;13.42;86.87
68986;BME280;56035;37.534;-122.308;2022-08-18T07:40:18;101062.53;;;13.37;86.80
68986;BME280;56035;37.534;-122.308;2022-08-18T07:42:36;101065.25;;;13.31;87.45
68986;BME280;56035;37.534;-122.308;2022-08-18T07:48:17;101075.13;;;13.27;87.88
68986;BME280;56035;37.534;-122.308;2022-08-18T07:55:36;101077.47;;;13.19;87.81
68986;BME280;56035;37.534;-122.308;2022-08-18T07:58:20;101076.03;;;13.16;88.13
68986;BME280;56035;37.534;-122.308;2022-08-18T08:00:49;101076.28;;;13.15;89.54
68986;BME280;56035;37.534;-122.308;2022-08-18T08:03:23;101072.09;;;13.12;89.18
68986;BME280;56035;37.534;-122.308;2022-08-18T08:06:35;101070.94;;;13.08;89.32
68986;BME280;56035;37.534;-122.308;2022-08-18T08:11:34;101073.94;;;13.06;89.25
68986;BME280;56035;37.534;-122.308;2022-08-18T08:14:05;101071.44;;;13.05;89.37
68986;BME280;56035;37.534;-122.308;2022-08-18T08:16:57;101077.47;;;13.02;89.72
68986;BME280;56035;37.534;-122.308;2022-08-18T08:19:39;101073.25;;;12.99;89.51
68986;BME280;56035;37.534;-122.308;2022-08-18T08:24:47;101067.06;;;12.92;89.72
68986;BME280;56035;37.534;-122.308;2022-08-18T08:27:18;101079.44;;;12.89;90.69
68986;BME280;56035;37.534;-122.308;2022-08-18T08:32:34;101081.63;;;12.87;91.12
68986;BME280;56035;37.534;-122.308;2022-08-18T08:35:03;101088.25;;;12.86;91.29
68986;BME280;56035;37.534;-122.308;2022-08-18T08:45:12;101090.81;;;12.76;90.47
68986;BME280;56035;37.534;-122.308;2022-08-18T08:47:50;101085.78;;;12.73;90.71
68986;BME280;56035;37.534;-122.308;2022-08-18T08:50:24;101087.38;;;12.69;90.60
68986;BME280;56035;37.534;-122.308;2022-08-18T08:55:30;101082.09;;;12.68;92.46
68986;BME280;56035;37.534;-122.308;2022-08-18T09:00:22;101076.97;;;12.59;92.13
68986;BME280;56035;37.534;-122.308;2022-08-18T09:05:33;101084.44;;;12.59;92.72
68986;BME280;56035;37.534;-122.308;2022-08-18T09:13:26;101084.19;;;12.60;93.69
68986;BME280;56035;37.534;-122.308;2022-08-18T09:16:04;101080.31;;;12.61;93.63
68986;BME280;56035;37.534;-122.308;2022-08-18T09:18:35;101086.44;;;12.63;93.56
68986;BME280;56035;37.534;-122.308;2022-08-18T09:21:12;101089.97;;;12.59;93.51
68986;BME280;56035;37.534;-122.308;2022-08-18T09:23:43;101093.22;;;12.56;92.94
68986;BME280;56035;37.534;-122.308;2022-08-18T09:26:21;101095.38;;;12.54;92.69
68986;BME280;56035;37.534;-122.308;2022-08-18T09:29:09;101092.63;;;12.54;93.71
68986;BME280;56035;37.534;-122.308;2022-08-18T09:31:37;101102.50;;;12.50;93.57
68986;BME280;56035;37.534;-122.308;2022-08-18T09:36:34;101096.84;;;12.45;94.23
68986;BME280;56035;37.534;-122.308;2022-08-18T09:41:58;101089.06;;;12.41;94.56
68986;BME280;56035;37.534;-122.308;2022-08-18T09:47:06;101099.16;;;12.36;95.39
68986;BME280;56035;37.534;-122.308;2022-08-18T09:49:39;101094.72;;;12.35;95.27
68986;BME280;56035;37.534;-122.308;2022-08-18T09:57:25;101120.09;;;12.32;94.52
68986;BME280;56035;37.534;-122.308;2022-08-18T10:13:05;101113.41;;;12.16;94.48
68986;BME280;56035;37.534;-122.308;2022-08-18T10:18:41;101111.38;;;12.11;94.67
68986;BME280;56035;37.534;-122.308;2022-08-18T10:21:12;101108.88;;;12.10;94.08
68986;BME280;56035;37.534;-122.308;2022-08-18T10:29:04;101100.34;;;12.00;94.41
68986;BME280;56035;37.534;-122.308;2022-08-18T10:31:33;101095.09;;;11.98;94.22
68986;BME280;56035;37.534;-122.308;2022-08-18T10:37:00;101100.69;;;12.03;96.18
68986;BME280;56035;37.534;-122.308;2022-08-18T10:42:05;101105.78;;;11.94;95.79
68986;BME280;56035;37.534;-122.308;2022-08-18T10:44:33;101104.34;;;11.92;95.51
68986;BME280;56035;37.534;-122.308;2022-08-18T10:47:01;101109.50;;;11.88;95.49
68986;BME280;56035;37.534;-122.308;2022-08-18T10:49:28;101113.59;;;11.86;95.33
68986;BME280;56035;37.534;-122.308;2022-08-18T10:54:46;101111.53;;;11.81;95.17
68986;BME280;56035;37.534;-122.308;2022-08-18T10:57:35;101110.09;;;11.79;94.58
68986;BME280;56035;37.534;-122.308;2022-08-18T11:05:39;101110.91;;;11.79;95.90
68986;BME280;56035;37.534;-122.308;2022-08-18T11:08:06;101116.34;;;11.74;95.77
68986;BME280;56035;37.534;-122.308;2022-08-18T11:10:38;101112.34;;;11.70;95.20
68986;BME280;56035;37.534;-122.308;2022-08-18T11:13:22;101115.13;;;11.70;95.38
68986;BME280;56035;37.534;-122.308;2022-08-18T11:18:57;101112.75;;;11.62;95.34
68986;BME280;56035;37.534;-122.308;2022-08-18T11:21:32;101110.19;;;11.60;95.52
68986;BME280;56035;37.534;-122.308;2022-08-18T11:26:28;101110.94;;;11.56;95.49
68986;BME280;56035;37.534;-122.308;2022-08-18T11:28:55;101118.38;;;11.55;95.98
68986;BME280;56035;37.534;-122.308;2022-08-18T11:31:21;101107.69;;;11.59;96.53
68986;BME280;56035;37.534;-122.308;2022-08-18T11:33:47;101115.13;;;11.70;97.44
68986;BME280;56035;37.534;-122.308;2022-08-18T11:36:13;101117.78;;;11.65;97.56
68986;BME280;56035;37.534;-122.308;2022-08-18T11:38:40;101114.41;;;11.63;97.27
68986;BME280;56035;37.534;-122.308;2022-08-18T11:41:19;101126.16;;;11.70;97.62
68986;BME280;56035;37.534;-122.308;2022-08-18T11:43:54;101131.09;;;11.68;97.17
68986;BME280;56035;37.534;-122.308;2022-08-18T11:46:22;101126.28;;;11.63;96.94
68986;BME280;56035;37.534;-122.308;2022-08-18T11:48:49;101117.78;;;11.65;96.98
68986;BME280;56035;37.534;-122.308;2022-08-18T11:51:26;101127.97;;;11.64;96.32
68986;BME280;56035;37.534;-122.308;2022-08-18T11:53:54;101124.88;;;11.61;96.31
68986;BME280;56035;37.534;-122.308;2022-08-18T11:56:23;101128.69;;;11.60;96.51
68986;BME280;56035;37.534;-122.308;2022-08-18T11:58:57;101124.34;;;11.64;96.34
68986;BME280;56035;37.534;-122.308;2022-08-18T12:01:34;101119.44;;;11.66;97.24
68986;BME280;56035;37.534;-122.308;2022-08-18T12:06:35;101122.91;;;11.73;97.44
68986;BME280;56035;37.534;-122.308;2022-08-18T12:11:53;101118.00;;;11.75;97.21
68986;BME280;56035;37.534;-122.308;2022-08-18T12:14:21;101117.41;;;11.73;97.51
68986;BME280;56035;37.534;-122.308;2022-08-18T12:16:48;101109.94;;;11.73;97.85
68986;BME280;56035;37.534;-122.308;2022-08-18T12:19:14;101129.06;;;11.75;97.44
68986;BME280;56035;37.534;-122.308;2022-08-18T12:21:49;101131.56;;;11.77;97.95
68986;BME280;56035;37.534;-122.308;2022-08-18T12:24:20;101130.72;;;11.76;97.55
68986;BME280;56035;37.534;-122.308;2022-08-18T12:26:47;101133.00;;;11.79;97.44
68986;BME280;56035;37.534;-122.308;2022-08-18T12:29:13;101144.41;;;11.83;97.77
68986;BME280;56035;37.534;-122.308;2022-08-18T12:31:41;101134.19;;;11.83;97.27
68986;BME280;56035;37.534;-122.308;2022-08-18T12:34:07;101147.41;;;11.81;97.66
68986;BME280;56035;37.534;-122.308;2022-08-18T12:36:34;101142.38;;;11.78;97.96
68986;BME280;56035;37.534;-122.308;2022-08-18T12:39:00;101145.63;;;11.75;97.34
68986;BME280;56035;37.534;-122.308;2022-08-18T12:41:25;101152.22;;;11.74;97.43
68986;BME280;56035;37.534;-122.308;2022-08-18T12:43:51;101155.56;;;11.76;97.82
68986;BME280;56035;37.534;-122.308;2022-08-18T12:46:20;101150.03;;;11.76;97.44
68986;BME280;56035;37.534;-122.308;2022-08-18T12:48:46;101150.28;;;11.75;97.78
68986;BME280;56035;37.534;-122.308;2022-08-18T12:51:12;101155.81;;;11.75;97.56
68986;BME280;56035;37.534;-122.308;2022-08-18T12:53:38;101145.63;;;11.75;97.74
68986;BME280;56035;37.534;-122.308;2022-08-18T12:56:23;101154.97;;;11.74;97.32
68986;BME280;56035;37.534;-122.308;2022-08-18T12:58:50;101156.28;;;11.71;96.76
68986;BME280;56035;37.534;-122.308;2022-08-18T13:01:19;101172.03;;;11.71;96.86
68986;BME280;56035;37.534;-122.308;2022-08-18T13:03:45;101160.63;;;11.67;97.08
68986;BME280;56035;37.534;-122.308;2022-08-18T13:06:11;101159.75;;;11.67;97.04
68986;BME280;56035;37.534;-122.308;2022-08-18T13:08:38;101165.28;;;11.67;97.56
68986;BME280;56035;37.534;-122.308;2022-08-18T13:11:04;101173.81;;;11.65;97.35
68986;BME280;56035;37.534;-122.308;2022-08-18T13:13:34;101178.13;;;11.61;96.79
68986;BME280;56035;37.534;-122.308;2022-08-18T13:16:00;101188.81;;;11.58;96.88
68986;BME280;56035;37.534;-122.308;2022-08-18T13:18:27;101188.19;;;11.56;96.82
68986;BME280;56035;37.534;-122.308;2022-08-18T13:20:53;101193.09;;;11.54;96.74
68986;BME280;56035;37.534;-122.308;2022-08-18T13:23:19;101195.28;;;11.52;96.92
68986;BME280;56035;37.534;-122.308;2022-08-18T13:25:44;101195.28;;;11.52;96.76
68986;BME280;56035;37.534;-122.308;2022-08-18T13:28:10;101193.34;;;11.52;97.14
68986;BME280;56035;37.534;-122.308;2022-08-18T13:30:36;101195.63;;;11.55;97.26
68986;BME280;56035;37.534;-122.308;2022-08-18T13:33:02;101197.69;;;11.60;97.41
68986;BME280;56035;37.534;-122.308;2022-08-18T13:35:28;101197.81;;;11.65;97.54
68986;BME280;56035;37.534;-122.308;2022-08-18T13:37:54;101206.34;;;11.75;97.64
68986;BME280;56035;37.534;-122.308;2022-08-18T13:40:21;101205.28;;;11.88;98.04
68986;BME280;56035;37.534;-122.308;2022-08-18T13:42:47;101209.84;;;11.94;97.51
68986;BME280;56035;37.534;-122.308;2022-08-18T13:45:14;101212.59;;;12.06;97.63
68986;BME280;56035;37.534;-122.308;2022-08-18T13:47:40;101222.47;;;12.13;97.23
68986;BME280;56035;37.534;-122.308;2022-08-18T13:50:06;101222.91;;;12.22;97.14
68986;BME280;56035;37.534;-122.308;2022-08-18T13:52:33;101221.25;;;12.33;97.05
68986;BME280;56035;37.534;-122.308;2022-08-18T13:54:59;101217.59;;;12.44;97.22
68986;BME280;56035;37.534;-122.308;2022-08-18T13:57:25;101224.19;;;12.55;96.69
68986;BME280;56035;37.534;-122.308;2022-08-18T13:59:50;101219.72;;;12.65;95.84
68986;BME280;56035;37.534;-122.308;2022-08-18T14:02:16;101232.41;;;12.78;95.64
68986;BME280;56035;37.534;-122.308;2022-08-18T14:04:42;101232.13;;;12.92;95.08
68986;BME280;56035;37.534;-122.308;2022-08-18T14:07:08;101240.63;;;13.02;95.03
68986;BME280;56035;37.534;-122.308;2022-08-18T14:09:34;101226.50;;;13.15;95.16
68986;BME280;56035;37.534;-122.308;2022-08-18T14:12:01;101223.69;;;13.27;94.88
68986;BME280;56035;37.534;-122.308;2022-08-18T14:14:27;101223.72;;;13.44;94.98
68986;BME280;56035;37.534;-122.308;2022-08-18T14:16:52;101220.66;;;13.57;94.98
68986;BME280;56035;37.534;-122.308;2022-08-18T14:19:18;101226.84;;;13.64;94.24
68986;BME280;56035;37.534;-122.308;2022-08-18T14:22:02;101234.50;;;13.74;93.69
68986;BME280;56035;37.534;-122.308;2022-08-18T14:24:46;101232.72;;;13.85;94.24
68986;BME280;56035;37.534;-122.308;2022-08-18T14:27:32;101233.72;;;13.95;93.87
68986;BME280;56035;37.534;-122.308;2022-08-18T14:29:59;101231.97;;;14.06;93.41
68986;BME280;56035;37.534;-122.308;2022-08-18T14:32:26;101234.59;;;14.18;93.04
68986;BME280;56035;37.534;-122.308;2022-08-18T14:34:54;101237.28;;;14.29;90.76
68986;BME280;56035;37.534;-122.308;2022-08-18T14:37:20;101236.81;;;14.38;89.50
68986;BME280;56035;37.534;-122.308;2022-08-18T14:39:46;101243.97;;;14.50;89.46
68986;BME280;56035;37.534;-122.308;2022-08-18T14:42:13;101238.88;;;14.64;88.38